Thursday, September 20, 2018, 10:44 PM EDT
Back to Local

KMSV, Monticello, Sullivan County International Airport

Location: Swan Lake, NY, United States Lat: 41.7
Local Time: 10:44 PM EDT ( 2:44 GMT) Lon: -74.8
Time Zone: US/Eastern Elev: 1404 ft

Show me the last for .
Show Coded

Time T Td Feel RH Dir Speed Gust Alt SLP Vis Weather Sky Remarks
2018-09-20 21:56 61 60 - 96 120° 6 - 30.25 30.25 9 FEW007 OVC016 None
2018-09-20 21:51 61 61 - 100 100° 5 - 30.26 - 9 SCT007 OVC016 None
2018-09-20 20:56 61 59 - 93 110° 3 - 30.26 30.26 10 BKN007 OVC015 None
2018-09-20 19:56 61 59 - 93 110° 3 - 30.25 30.25 10 OVC007 6-hr Min Temp (8pm): 60.1°F
6-hr Max Temp (8pm): 62.1°F
2018-09-20 18:56 61 59 - 93 160° 6 - 30.25 30.24 6 BR OVC005 None
2018-09-20 18:08 61 59 - 93 160° 5 - 30.25 - 6 BR OVC005 None
2018-09-20 17:56 61 59 - 93 140° 6 - 30.26 30.25 10 OVC007 None
2018-09-20 16:56 61 59 - 93 110° 6 - 30.25 30.24 10 OVC007 None
2018-09-20 15:56 61 58 - 89 160° 5 - 30.25 30.24 10 OVC007 None
2018-09-20 15:11 61 57 - 87 140° 9 - 30.24 - 10 OVC007 None
2018-09-20 14:56 61 58 - 89 160° 7 - 30.24 30.24 10 OVC005 None
2018-09-20 13:56 61 58 - 89 160° 7 - 30.26 30.26 10 OVC005 6-hr Min Temp (2pm): 57.0°F
6-hr Max Temp (2pm): 61.0°F
2018-09-20 12:56 60 58 - 92 140° 8 - 30.28 30.28 8 OVC005 None
2018-09-20 11:56 60 57 - 89 90° 7 - 30.27 30.27 10 OVC005 None
2018-09-20 10:56 59 57 - 93 110° 6 - 30.27 30.27 5 BR OVC005 None
2018-09-20 09:56 57 56 - 96 80° 5 - 30.26 30.25 3 BR OVC005 None
2018-09-20 09:43 57 55 - 93 90° 5 - 30.25 - 5 BR OVC005 None
2018-09-20 08:56 58 54 - 86 70° 5 - 30.24 30.24 10 OVC009 None
2018-09-20 08:38 57 54 - 87 100° 5 - 30.23 - 10 OVC009 None
2018-09-20 08:09 57 55 - 93 100° 3 - 30.22 - 10 OVC011 None
2018-09-20 07:56 57 55 - 93 120° 3 - 30.22 30.21 10 OVC009 6-hr Min Temp (8am): 55.0°F
6-hr Max Temp (8am): 57.9°F
2018-09-20 06:56 57 54 - 89 80° 3 - 30.20 30.19 10 OVC007 None
2018-09-20 06:13 57 55 - 93 90° 5 - 30.17 - 10 OVC009 None
2018-09-20 05:56 57 55 - 93 90° 3 - 30.17 30.15 10 OVC011 None
2018-09-20 05:44 57 55 - 93 80° 3 - 30.17 - 10 OVC011 None
2018-09-20 05:03 57 55 - 93 90° 7 - 30.15 - 10 OVC007 None
2018-09-20 04:56 57 56 - 96 90° 6 - 30.15 30.13 10 OVC005 None
2018-09-20 04:23 55 55 - 100 - Calm - 30.14 - 10 OVC003 None
2018-09-20 03:56 56 55 - 96 350° 3 - 30.14 30.12 10 BKN001 OVC026 None
2018-09-20 03:38 55 55 - 100 - Calm - 30.14 - 10 BKN001 OVC020 None
2018-09-20 03:24 57 55 - 93 - Calm - 30.14 - 10 FEW001 BKN020 OVC027 None
2018-09-20 02:56 58 56 - 93 300° 3 - 30.14 30.12 10 OVC022 None
2018-09-20 02:30 57 55 - 93 - Calm - 30.14 - 10 FEW001 BKN022 OVC037 None
2018-09-20 02:23 57 55 - 93 280° 3 - 30.13 - 10 BKN022 OVC037 None
2018-09-20 01:13 59 57 - 93 270° 3 - 30.13 - 10 FEW001 OVC037 None
2018-09-20 00:56 60 57 - 89 300° 5 - 30.13 30.11 10 OVC035 24-hr Min Temp (1am): 59.0°F
24-hr Max Temp (1am): 79.0°F
2018-09-19 23:56 60 56 - 86 310° 5 - 30.12 - 10 SCT037 None
2018-09-19 22:56 62 57 - 83 320° 6 - 30.12 - 10 OVC039 None

Support USWX by starting your Amazon purchase here.